Time;durP1;ratioP1;P1;durP2;ratioP2;P2;SDS_P1;SDS_P2;PMS_P1;PMS_P2;Temp;Humidity;BMP_temperature;BMP_pressure;BME280_temperature;BME280_humidity;BME280_pressure;Samples;Min_cycle;Max_cycle;Signal;HPM_P1;HPM_P2
2021/06/02 00:03:51;;;;;;;6.13;5.57;;;19.30;52.00;;;;;;5056872;28;20207;-91
2021/06/02 00:06:18;;;;;;;6.30;5.70;;;19.10;52.50;;;;;;5043774;28;20184;-91
2021/06/02 00:08:44;;;;;;;6.72;5.68;;;19.10;52.50;;;;;;5079131;28;20225;-90
2021/06/02 00:11:11;;;;;;;5.60;4.63;;;19.20;52.10;;;;;;5073649;28;20192;-91
2021/06/02 00:13:37;;;;;;;5.30;4.80;;;18.90;51.80;;;;;;5065032;28;20218;-91
2021/06/02 00:16:04;;;;;;;5.57;5.07;;;18.70;52.50;;;;;;5053240;28;20171;-90
2021/06/02 00:18:29;;;;;;;5.30;4.85;;;18.60;52.70;;;;;;5079360;28;20196;-90
2021/06/02 00:20:56;;;;;;;5.40;4.65;;;18.40;52.60;;;;;;5055551;28;20618;-91
2021/06/02 00:23:22;;;;;;;5.47;5.03;;;18.30;53.50;;;;;;5045522;28;20207;-91
2021/06/02 00:25:48;;;;;;;5.13;4.73;;;18.10;54.30;;;;;;5044976;28;20686;-92
2021/06/02 00:28:16;;;;;;;5.20;4.80;;;18.20;54.30;;;;;;5063466;28;20172;-91
2021/06/02 00:30:44;;;;;;;5.38;4.88;;;18.40;54.10;;;;;;5044611;28;20215;-91
2021/06/02 00:33:11;;;;;;;5.20;4.70;;;18.50;54.80;;;;;;5063671;28;20211;-91
2021/06/02 00:35:38;;;;;;;5.05;4.68;;;18.60;53.80;;;;;;5028988;28;20188;-91
2021/06/02 00:38:04;;;;;;;5.07;4.68;;;18.60;53.50;;;;;;5063077;28;20186;-91
2021/06/02 00:40:43;;;;;;;5.00;4.50;;;18.50;53.60;;;;;;5062628;28;20220;-91
2021/06/02 00:43:09;;;;;;;5.17;4.70;;;18.50;53.30;;;;;;5063147;28;20160;-91
2021/06/02 00:45:35;;;;;;;5.53;4.80;;;18.10;54.70;;;;;;5038029;28;20175;-91
2021/06/02 00:48:03;;;;;;;4.83;4.33;;;17.80;55.60;;;;;;5041918;28;20182;-91
2021/06/02 00:50:32;;;;;;;5.90;4.87;;;17.80;56.50;;;;;;5042505;28;20208;-91
2021/06/02 00:52:58;;;;;;;5.40;4.90;;;17.90;55.60;;;;;;5026826;28;20208;-91
2021/06/02 00:55:24;;;;;;;5.50;5.10;;;17.90;55.70;;;;;;5044544;28;20182;-91
2021/06/02 00:57:53;;;;;;;5.07;4.67;;;18.10;55.10;;;;;;5043693;28;20185;-91
2021/06/02 01:00:20;;;;;;;5.57;4.80;;;18.10;53.00;;;;;;5026224;28;20194;-91
2021/06/02 01:02:51;;;;;;;5.00;4.60;;;17.90;53.50;;;;;;5032610;28;20183;-91
2021/06/02 01:05:20;;;;;;;5.03;4.43;;;17.80;54.10;;;;;;5045427;28;20227;-91
2021/06/02 01:07:50;;;;;;;5.10;4.70;;;17.50;55.90;;;;;;5063785;28;20176;-91
2021/06/02 01:10:16;;;;;;;4.93;4.53;;;17.10;57.30;;;;;;5029758;28;20694;-91
2021/06/02 01:12:43;;;;;;;5.17;4.77;;;16.90;57.40;;;;;;5046466;28;20894;-91
2021/06/02 01:15:09;;;;;;;5.43;4.93;;;17.10;56.50;;;;;;5045882;28;20184;-91
2021/06/02 01:17:35;;;;;;;5.00;4.50;;;17.30;55.90;;;;;;5045217;28;20192;-91
2021/06/02 01:20:02;;;;;;;5.17;4.63;;;17.40;55.90;;;;;;5063501;28;20212;-91
2021/06/02 01:22:33;;;;;;;4.40;4.10;;;17.60;55.20;;;;;;5063498;28;20224;-91
2021/06/02 01:25:11;;;;;;;4.40;4.10;;;17.60;55.30;;;;;;5063360;28;20622;-91
2021/06/02 01:27:38;;;;;;;5.10;4.27;;;17.40;56.30;;;;;;5051405;28;20983;-91
2021/06/02 01:30:12;;;;;;;5.33;4.93;;;17.40;56.70;;;;;;5026128;28;20213;-91
2021/06/02 01:32:56;;;;;;;5.77;5.10;;;17.60;56.30;;;;;;5009286;28;20187;-91
2021/06/02 01:35:51;;;;;;;5.30;4.90;;;17.70;56.10;;;;;;5043980;28;20179;-91
2021/06/02 01:38:35;;;;;;;4.83;4.50;;;17.60;56.20;;;;;;5026103;28;20181;-91
2021/06/02 01:41:29;;;;;;;5.20;4.70;;;17.60;56.70;;;;;;5026008;28;20209;-91
2021/06/02 01:44:38;;;;;;;5.17;4.67;;;17.50;56.80;;;;;;5052963;28;20226;-91
2021/06/02 01:47:23;;;;;;;5.70;4.50;;;17.50;57.00;;;;;;5018380;28;20197;-91
2021/06/02 01:50:44;;;;;;;5.37;4.97;;;17.30;57.90;;;;;;5062957;28;20197;-91
2021/06/02 01:53:22;;;;;;;4.83;4.43;;;17.40;57.90;;;;;;5045577;28;20194;-90
2021/06/02 01:56:25;;;;;;;5.13;4.73;;;17.40;57.80;;;;;;5062605;28;20169;-91
2021/06/02 01:59:41;;;;;;;5.00;4.50;;;17.40;57.50;;;;;;5044617;28;20182;-91
2021/06/02 02:02:21;;;;;;;5.10;4.70;;;17.30;57.90;;;;;;5062242;28;20230;-90
2021/06/02 02:05:02;;;;;;;4.97;4.57;;;17.20;57.90;;;;;;5044862;28;20207;-90
2021/06/02 02:08:05;;;;;;;5.30;4.80;;;17.20;57.90;;;;;;5045219;28;20175;-91
2021/06/02 02:10:51;;;;;;;5.37;4.87;;;17.40;57.60;;;;;;5045197;28;20218;-90
2021/06/02 02:13:31;;;;;;;5.10;4.70;;;17.30;57.90;;;;;;5045523;28;20175;-91
2021/06/02 02:16:31;;;;;;;4.90;4.47;;;17.20;58.00;;;;;;5062804;28;20178;-91
2021/06/02 02:19:28;;;;;;;5.03;4.63;;;17.20;57.60;;;;;;5045899;28;20184;-91
2021/06/02 02:22:21;;;;;;;4.87;4.37;;;17.20;57.80;;;;;;5045374;28;20227;-91
2021/06/02 02:24:58;;;;;;;4.87;4.47;;;17.20;57.80;;;;;;5062928;28;20203;-91
2021/06/02 02:27:39;;;;;;;5.47;4.97;;;17.10;58.10;;;;;;5044528;28;20165;-91
2021/06/02 02:30:28;;;;;;;5.23;4.83;;;16.90;58.30;;;;;;5045006;28;20201;-91
2021/06/02 02:33:03;;;;;;;5.27;4.87;;;16.70;59.00;;;;;;5061910;28;20813;-91
2021/06/02 02:35:50;;;;;;;4.60;4.30;;;16.50;59.60;;;;;;5062525;28;20164;-91
2021/06/02 02:38:40;;;;;;;4.67;4.27;;;16.50;59.50;;;;;;5062227;28;20554;-91
2021/06/02 02:41:29;;;;;;;4.83;4.43;;;16.50;60.00;;;;;;5065879;28;20216;-91
2021/06/02 02:44:13;;;;;;;5.60;5.10;;;16.50;59.80;;;;;;5066171;28;20195;-91
2021/06/02 02:46:49;;;;;;;5.50;4.77;;;16.50;59.40;;;;;;5047752;28;20176;-91
2021/06/02 02:49:41;;;;;;;6.23;5.00;;;16.40;60.10;;;;;;5066192;28;20201;-91
2021/06/02 02:52:38;;;;;;;6.37;5.30;;;16.50;59.30;;;;;;5076093;28;20156;-89
2021/06/02 02:55:08;;;;;;;6.83;5.40;;;16.60;59.00;;;;;;5067135;28;20192;-90
2021/06/02 02:57:46;;;;;;;6.50;5.30;;;16.70;58.80;;;;;;5049126;28;20426;-91
2021/06/02 03:00:13;;;;;;;5.73;5.23;;;16.70;58.80;;;;;;5072344;28;20209;-90
2021/06/02 03:02:57;;;;;;;5.40;4.90;;;16.70;58.60;;;;;;5080901;28;20149;-90
2021/06/02 03:05:29;;;;;;;6.77;5.40;;;16.70;58.50;;;;;;5075458;28;20176;-90
2021/06/02 03:08:12;;;;;;;8.80;5.23;;;16.70;58.50;;;;;;5066365;28;20673;-91
2021/06/02 03:10:48;;;;;;;6.93;5.57;;;16.60;58.20;;;;;;5066455;28;20192;-91
2021/06/02 03:13:39;;;;;;;8.00;6.10;;;16.40;59.20;;;;;;5047735;28;20175;-91
2021/06/02 03:16:11;;;;;;;6.07;5.20;;;16.10;59.80;;;;;;5067071;28;20165;-91
2021/06/02 03:18:43;;;;;;;5.33;4.83;;;16.10;60.10;;;;;;5066122;28;20156;-91
2021/06/02 03:21:28;;;;;;;5.63;5.23;;;16.10;60.20;;;;;;5065093;28;20190;-91
2021/06/02 03:24:15;;;;;;;7.20;5.20;;;16.10;60.40;;;;;;5066239;28;20188;-90
2021/06/02 03:26:54;;;;;;;7.33;4.73;;;16.20;59.50;;;;;;5047126;28;20165;-90
2021/06/02 03:29:28;;;;;;;7.57;5.80;;;16.20;59.70;;;;;;5066041;28;20206;-90
2021/06/02 03:32:21;;;;;;;5.70;5.20;;;16.20;59.60;;;;;;5064527;28;20180;-91
2021/06/02 03:35:11;;;;;;;5.10;4.60;;;16.30;59.00;;;;;;5047307;28;20197;-91
2021/06/02 03:38:05;;;;;;;5.63;4.63;;;16.20;59.20;;;;;;5047175;28;20171;-91
2021/06/02 03:41:21;;;;;;;11.57;4.80;;;16.20;59.60;;;;;;5065289;28;20225;-89
2021/06/02 03:43:50;;;;;;;5.30;4.80;;;16.10;59.50;;;;;;5043452;28;20213;-91
2021/06/02 03:46:25;;;;;;;5.43;4.93;;;16.10;59.50;;;;;;5046979;28;20189;-91
2021/06/02 03:49:03;;;;;;;6.97;5.10;;;16.10;59.50;;;;;;5046854;28;20175;-91
2021/06/02 03:52:12;;;;;;;8.27;5.20;;;15.70;60.90;;;;;;5064433;28;20675;-91
2021/06/02 03:54:45;;;;;;;5.40;4.90;;;15.60;61.30;;;;;;5014017;28;20189;-91
2021/06/02 03:57:34;;;;;;;5.83;5.33;;;15.70;61.10;;;;;;5064816;28;20157;-91
2021/06/02 04:00:15;;;;;;;6.23;5.53;;;15.80;60.50;;;;;;5047107;28;20685;-90
2021/06/02 04:03:02;;;;;;;7.60;5.83;;;15.90;60.60;;;;;;5066564;28;20187;-90
2021/06/02 04:05:55;;;;;;;10.10;6.10;;;15.90;61.20;;;;;;5046988;28;20595;-91
2021/06/02 04:09:03;;;;;;;7.33;5.93;;;15.80;60.40;;;;;;5063687;28;20200;-91
2021/06/02 04:11:46;;;;;;;7.77;5.70;;;15.90;60.10;;;;;;5063141;28;20161;-90
2021/06/02 04:14:37;;;;;;;9.23;6.13;;;15.90;60.20;;;;;;5049801;28;20191;-92
2021/06/02 04:17:03;;;;;;;7.80;5.97;;;15.90;60.10;;;;;;5051462;28;20199;-91
2021/06/02 04:19:32;;;;;;;5.83;5.33;;;16.00;60.10;;;;;;5035819;28;20216;-91
2021/06/02 04:22:08;;;;;;;9.67;5.87;;;16.00;60.00;;;;;;5070201;28;20186;-91
2021/06/02 04:24:36;;;;;;;6.13;5.50;;;16.00;60.00;;;;;;5069832;28;20203;-92
2021/06/02 04:27:03;;;;;;;9.30;6.10;;;16.00;59.90;;;;;;5070399;28;20212;-93
2021/06/02 04:29:30;;;;;;;9.07;5.70;;;16.00;59.80;;;;;;5052947;28;20204;-91
2021/06/02 04:31:58;;;;;;;10.17;6.47;;;16.00;59.90;;;;;;5053514;28;20188;-92
2021/06/02 04:34:25;;;;;;;8.97;5.90;;;16.00;60.10;;;;;;5070189;28;20187;-91
2021/06/02 04:36:56;;;;;;;8.50;6.43;;;16.10;59.90;;;;;;5052171;28;20185;-91
2021/06/02 04:39:24;;;;;;;7.90;5.23;;;16.00;60.40;;;;;;5053231;28;20243;-91
2021/06/02 04:41:54;;;;;;;10.00;6.10;;;16.00;60.30;;;;;;5053752;28;20165;-91
2021/06/02 04:44:22;;;;;;;20.53;6.30;;;16.00;60.40;;;;;;5053741;28;20249;-92
2021/06/02 04:46:48;;;;;;;14.87;6.47;;;16.10;60.70;;;;;;5052993;28;20452;-90
2021/06/02 04:49:15;;;;;;;11.10;7.10;;;16.10;60.50;;;;;;5052346;28;20200;-91
2021/06/02 04:52:07;;;;;;;19.10;7.93;;;16.30;60.30;;;;;;5034166;28;20187;-92
2021/06/02 04:55:07;;;;;;;18.50;9.70;;;16.30;60.30;;;;;;5068490;28;20208;-91
2021/06/02 04:57:52;;;;;;;14.80;8.13;;;16.40;60.50;;;;;;5050046;28;20190;-91
2021/06/02 05:00:49;;;;;;;20.73;8.83;;;16.40;60.30;;;;;;5050658;28;20739;-92
2021/06/02 05:03:34;;;;;;;15.93;8.40;;;16.50;60.50;;;;;;5051573;28;20172;-92
2021/06/02 05:06:24;;;;;;;11.47;6.73;;;16.60;60.90;;;;;;5052123;28;20240;-90
2021/06/02 05:09:09;;;;;;;9.90;6.03;;;16.50;61.70;;;;;;5070333;28;20242;-91
2021/06/02 05:11:38;;;;;;;7.97;5.70;;;16.60;62.10;;;;;;5047856;28;20183;-91
2021/06/02 05:14:47;;;;;;;13.23;6.93;;;16.60;62.80;;;;;;5047444;28;20191;-90
2021/06/02 05:17:46;;;;;;;7.90;6.60;;;16.50;62.90;;;;;;5065934;28;20230;-91
2021/06/02 05:24:14;;;;;;;5.93;5.43;;;16.20;65.90;;;;;;5034481;28;20247;-91
2021/06/02 05:27:19;;;;;;;6.47;5.70;;;16.40;65.50;;;;;;4973750;28;20203;-91
2021/06/02 05:30:06;;;;;;;6.73;5.70;;;16.50;64.80;;;;;;5050873;28;20207;-91
2021/06/02 05:32:32;;;;;;;6.33;5.73;;;16.60;64.30;;;;;;5065290;28;20207;-91
2021/06/02 05:35:01;;;;;;;5.50;5.00;;;16.70;64.70;;;;;;5065532;28;20193;-91
2021/06/02 05:37:44;;;;;;;7.07;6.07;;;16.80;63.70;;;;;;5049365;28;20191;-90
2021/06/02 05:40:38;;;;;;;6.40;5.80;;;16.90;63.40;;;;;;5060414;28;20208;-90
2021/06/02 05:43:22;;;;;;;7.03;5.97;;;17.00;63.00;;;;;;5068606;28;20446;-91
2021/06/02 05:46:03;;;;;;;5.90;5.40;;;17.10;62.70;;;;;;5048512;28;20173;-91
2021/06/02 05:48:41;;;;;;;5.80;5.30;;;17.20;62.00;;;;;;5075148;28;20176;-90
2021/06/02 05:51:42;;;;;;;5.70;5.10;;;17.30;61.90;;;;;;5075283;28;20235;-91
2021/06/02 05:54:34;;;;;;;6.07;5.57;;;17.50;61.50;;;;;;5047324;28;20174;-91
2021/06/02 05:57:11;;;;;;;6.90;6.03;;;17.50;61.50;;;;;;5046058;28;20182;-90
2021/06/02 06:00:02;;;;;;;6.33;5.80;;;17.40;61.00;;;;;;5063822;28;20204;-91
2021/06/02 06:02:50;;;;;;;7.17;5.60;;;17.50;59.60;;;;;;5030249;28;20254;-91
2021/06/02 06:05:53;;;;;;;5.75;5.25;;;17.50;58.10;;;;;;5043243;28;20210;-91
2021/06/02 06:08:47;;;;;;;6.17;5.57;;;17.50;58.30;;;;;;5026224;28;20182;-91
2021/06/02 06:11:18;;;;;;;5.30;4.90;;;17.60;58.50;;;;;;5062251;28;20261;-90
2021/06/02 06:14:18;;;;;;;4.77;4.37;;;17.60;56.80;;;;;;5063808;28;20189;-91
2021/06/02 06:17:01;;;;;;;4.95;4.45;;;17.60;54.60;;;;;;5033662;28;20202;-91
2021/06/02 06:19:51;;;;;;;5.82;4.45;;;17.70;54.20;;;;;;5062190;28;20280;-91
2021/06/02 06:22:55;;;;;;;7.18;4.60;;;17.80;54.00;;;;;;5050195;28;20182;-91
2021/06/02 06:25:54;;;;;;;6.88;5.15;;;17.80;54.40;;;;;;5024705;28;20215;-91
2021/06/02 06:28:36;;;;;;;5.17;4.70;;;17.80;56.40;;;;;;5021127;28;20218;-91
2021/06/02 06:31:06;;;;;;;5.13;4.73;;;17.60;57.10;;;;;;5041590;28;20465;-90
2021/06/02 06:33:34;;;;;;;5.50;5.00;;;17.60;56.80;;;;;;5048635;28;20183;-91
2021/06/02 06:36:02;;;;;;;6.13;4.67;;;17.70;56.20;;;;;;5029365;28;20190;-91
2021/06/02 06:38:39;;;;;;;8.20;5.10;;;17.70;56.20;;;;;;5022046;28;20327;-91
2021/06/02 06:41:06;;;;;;;7.78;4.80;;;17.80;56.10;;;;;;5026453;28;20607;-91
2021/06/02 06:43:34;;;;;;;6.88;5.78;;;17.80;56.00;;;;;;5008833;28;20578;-91
2021/06/02 06:46:01;;;;;;;6.60;5.05;;;18.00;55.70;;;;;;5008409;28;20186;-91
2021/06/02 06:48:27;;;;;;;5.20;4.80;;;18.00;55.60;;;;;;5028308;28;20185;-91
2021/06/02 06:50:57;;;;;;;5.57;5.10;;;18.10;57.50;;;;;;5041306;28;20737;-92
2021/06/02 06:53:25;;;;;;;6.70;5.07;;;18.10;58.80;;;;;;5044377;28;20179;-88
2021/06/02 06:55:53;;;;;;;5.85;5.20;;;18.20;57.00;;;;;;5032146;28;20188;-90
2021/06/02 06:58:24;;;;;;;6.85;5.10;;;18.30;58.00;;;;;;5013328;28;20186;-90
2021/06/02 07:00:50;;;;;;;7.15;5.07;;;18.20;55.90;;;;;;5033044;28;20211;-90
2021/06/02 07:03:16;;;;;;;6.63;5.05;;;18.40;56.90;;;;;;5062147;28;20187;-89
2021/06/02 07:05:43;;;;;;;7.40;5.97;;;18.60;56.00;;;;;;5061875;28;20188;-90
2021/06/02 07:08:10;;;;;;;6.15;5.55;;;18.70;53.50;;;;;;5044521;28;20183;-90
2021/06/02 07:10:36;;;;;;;5.78;5.10;;;18.80;52.60;;;;;;5027381;28;20216;-90
2021/06/02 07:13:06;;;;;;;6.43;4.80;;;18.90;52.70;;;;;;5061984;28;20270;-89
2021/06/02 07:15:32;;;;;;;5.80;4.63;;;18.90;53.00;;;;;;5062358;28;20173;-89
2021/06/02 07:18:00;;;;;;;6.80;4.85;;;19.10;53.10;;;;;;5038308;28;20194;-90
2021/06/02 07:20:28;;;;;;;5.15;4.63;;;19.10;52.70;;;;;;5053287;28;20301;-90
2021/06/02 07:22:55;;;;;;;5.18;4.78;;;19.30;51.80;;;;;;5025312;28;20188;-89
2021/06/02 07:25:25;;;;;;;6.57;5.07;;;19.30;52.30;;;;;;5043165;28;20207;-90
2021/06/02 07:27:52;;;;;;;5.43;4.93;;;19.40;51.10;;;;;;5026559;28;20165;-89
2021/06/02 07:30:22;;;;;;;5.22;4.72;;;19.50;50.90;;;;;;5026427;28;20208;-89
2021/06/02 07:32:48;;;;;;;6.25;5.38;;;19.50;51.00;;;;;;5060251;28;20204;-89
2021/06/02 07:35:14;;;;;;;5.70;5.13;;;19.50;51.40;;;;;;5043237;28;20176;-90
2021/06/02 07:37:43;;;;;;;5.13;4.70;;;19.70;50.20;;;;;;5033780;28;20206;-93
2021/06/02 07:40:09;;;;;;;6.32;5.30;;;19.70;50.80;;;;;;5046325;28;20230;-92
2021/06/02 07:42:36;;;;;;;5.43;4.93;;;19.60;50.00;;;;;;5046512;28;20202;-92
2021/06/02 07:45:04;;;;;;;6.93;5.13;;;19.60;49.90;;;;;;5064355;28;20218;-92
2021/06/02 07:47:29;;;;;;;7.32;5.38;;;19.70;50.00;;;;;;5028190;28;20181;-92
2021/06/02 07:49:55;;;;;;;6.25;5.68;;;19.90;50.00;;;;;;5029262;28;20245;-92
2021/06/02 07:52:21;;;;;;;7.32;5.50;;;20.10;49.10;;;;;;5064279;28;20176;-92
2021/06/02 07:54:47;;;;;;;7.80;5.10;;;20.10;48.10;;;;;;5014210;28;20248;-92
2021/06/02 07:57:13;;;;;;;7.05;5.53;;;20.10;48.30;;;;;;5045969;28;20216;-92
2021/06/02 07:59:38;;;;;;;5.90;5.22;;;20.40;48.10;;;;;;5044995;28;20200;-92
2021/06/02 08:02:07;;;;;;;8.65;5.53;;;20.40;47.80;;;;;;5024985;28;20192;-92
2021/06/02 08:04:33;;;;;;;5.68;4.57;;;20.50;48.00;;;;;;5045336;28;20200;-92
2021/06/02 08:07:01;;;;;;;7.05;4.93;;;20.60;48.10;;;;;;5046818;28;20182;-91
2021/06/02 08:09:27;;;;;;;6.95;5.05;;;20.60;48.00;;;;;;5045693;28;20197;-92
2021/06/02 08:11:53;;;;;;;6.05;5.05;;;20.80;48.50;;;;;;5062954;28;20229;-92
2021/06/02 08:14:19;;;;;;;7.75;4.95;;;21.00;48.80;;;;;;5030589;28;20206;-92
2021/06/02 08:16:46;;;;;;;8.48;5.50;;;21.10;49.20;;;;;;5045315;28;20184;-94
2021/06/02 08:19:12;;;;;;;9.88;5.55;;;21.20;49.10;;;;;;5031878;28;20206;-92
2021/06/02 08:21:38;;;;;;;5.30;4.80;;;21.30;49.90;;;;;;5078198;28;20187;-92
2021/06/02 08:24:04;;;;;;;7.18;5.13;;;21.20;48.60;;;;;;5037747;28;20208;-92
2021/06/02 08:26:35;;;;;;;5.72;4.97;;;21.30;48.40;;;;;;5068347;28;20171;-92
2021/06/02 08:29:00;;;;;;;6.85;5.40;;;21.40;48.90;;;;;;5065760;28;20179;-93
2021/06/02 08:31:26;;;;;;;5.68;4.60;;;21.50;47.00;;;;;;5059654;28;20186;-91
2021/06/02 08:33:52;;;;;;;5.13;4.72;;;21.50;46.90;;;;;;5079059;28;20193;-91
2021/06/02 08:36:17;;;;;;;6.35;5.00;;;21.70;46.30;;;;;;5072047;28;20530;-93
2021/06/02 08:38:43;;;;;;;5.75;5.25;;;21.70;46.40;;;;;;5062919;28;20206;-93
2021/06/02 08:41:09;;;;;;;7.03;4.82;;;22.00;44.90;;;;;;5044263;28;20223;-92
2021/06/02 08:43:35;;;;;;;8.13;5.32;;;22.10;47.20;;;;;;5044828;28;20287;-93
2021/06/02 08:46:01;;;;;;;5.38;4.93;;;22.00;48.40;;;;;;5044078;28;20241;-92
2021/06/02 08:48:27;;;;;;;6.95;4.60;;;22.00;47.90;;;;;;5044923;28;20185;-92
2021/06/02 08:50:54;;;;;;;4.65;4.15;;;21.80;45.40;;;;;;5065018;28;20268;-92
2021/06/02 08:53:20;;;;;;;5.40;4.30;;;22.00;41.60;;;;;;5048521;28;20274;-92
2021/06/02 08:55:47;;;;;;;5.22;4.82;;;22.10;43.30;;;;;;5047122;28;20271;-92
2021/06/02 08:58:20;;;;;;;5.32;4.90;;;22.40;45.40;;;;;;5044270;28;20187;-93
2021/06/02 09:00:47;;;;;;;4.90;4.38;;;22.60;46.40;;;;;;5034912;28;20207;-92
2021/06/02 09:03:13;;;;;;;4.82;4.28;;;22.70;41.90;;;;;;5043849;28;20177;-92
2021/06/02 09:05:39;;;;;;;4.80;4.40;;;22.80;39.90;;;;;;5043834;28;20177;-91
2021/06/02 09:08:07;;;;;;;6.30;4.93;;;23.00;41.20;;;;;;5026466;28;20188;-92
2021/06/02 09:10:43;;;;;;;5.45;4.93;;;23.10;41.80;;;;;;5031808;28;20247;-92
2021/06/02 09:13:23;;;;;;;4.47;4.07;;;23.20;43.40;;;;;;5060707;28;20167;-93
2021/06/02 09:15:52;;;;;;;4.82;4.43;;;23.30;43.90;;;;;;5007107;28;20188;-92
2021/06/02 09:18:20;;;;;;;5.10;4.65;;;23.50;41.90;;;;;;5024034;28;20184;-92
2021/06/02 09:20:52;;;;;;;4.90;4.40;;;23.60;40.50;;;;;;5042896;28;20206;-92
2021/06/02 09:23:38;;;;;;;4.75;4.35;;;24.00;40.80;;;;;;5022961;28;20173;-93
2021/06/02 09:26:12;;;;;;;8.25;4.40;;;24.30;41.00;;;;;;5023553;28;20176;-92
2021/06/02 09:28:48;;;;;;;5.00;4.57;;;24.50;40.20;;;;;;5023763;28;20656;-92
2021/06/02 09:31:30;;;;;;;4.38;3.95;;;24.50;38.90;;;;;;5043973;28;20200;-92
2021/06/02 09:34:06;;;;;;;7.18;4.72;;;24.70;39.20;;;;;;5041990;28;20169;-93
2021/06/02 09:36:40;;;;;;;4.70;4.40;;;24.80;38.00;;;;;;5042632;28;20207;-92
2021/06/02 09:42:19;;;;;;;8.48;4.82;;;25.00;37.60;;;;;;5395177;22;20247;-90
2021/06/02 09:45:01;;;;;;;4.22;3.83;;;25.00;38.40;;;;;;5034045;28;20250;-90
2021/06/02 09:47:43;;;;;;;5.75;5.32;;;25.40;37.40;;;;;;5038636;28;20204;-90
2021/06/02 09:50:10;;;;;;;4.78;4.30;;;25.50;35.70;;;;;;5023430;28;20177;-90
2021/06/02 09:52:45;;;;;;;5.40;4.40;;;25.50;35.30;;;;;;5043642;28;20257;-90
2021/06/02 09:55:28;;;;;;;4.50;4.10;;;25.50;35.20;;;;;;5027017;28;20212;-90
2021/06/02 09:58:09;;;;;;;5.45;4.47;;;25.50;34.80;;;;;;5043844;28;20173;-89
2021/06/02 10:00:39;;;;;;;6.57;4.65;;;25.70;35.20;;;;;;5036074;28;20220;-88
2021/06/02 10:03:18;;;;;;;4.47;4.07;;;25.90;35.80;;;;;;5031824;28;20204;-90
2021/06/02 10:05:50;;;;;;;24.48;20.70;;;26.10;34.70;;;;;;5025588;28;20557;-91
2021/06/02 10:08:35;;;;;;;4.50;4.20;;;26.10;33.00;;;;;;5037199;28;20259;-88
2021/06/02 10:11:18;;;;;;;5.38;4.97;;;26.20;34.70;;;;;;5023340;28;20209;-91
2021/06/02 10:13:49;;;;;;;4.55;4.20;;;26.60;35.10;;;;;;5036068;28;20227;-91
2021/06/02 10:16:33;;;;;;;4.70;4.30;;;26.70;31.70;;;;;;5034472;28;20181;-91
2021/06/02 10:18:58;;;;;;;4.38;3.97;;;26.40;32.60;;;;;;5013037;28;20256;-90
2021/06/02 10:21:24;;;;;;;4.70;4.30;;;26.50;32.60;;;;;;5034526;28;20225;-90
2021/06/02 10:23:50;;;;;;;4.78;4.40;;;26.90;31.60;;;;;;5041900;28;20667;-91
2021/06/02 10:26:17;;;;;;;4.38;3.85;;;27.20;30.20;;;;;;5039503;28;20205;-90
2021/06/02 10:28:45;;;;;;;4.50;3.88;;;27.20;29.30;;;;;;5037164;28;20182;-91
2021/06/02 10:31:13;;;;;;;4.30;4.00;;;27.30;29.20;;;;;;5032914;28;20194;-90
2021/06/02 10:33:40;;;;;;;4.72;3.78;;;27.50;29.20;;;;;;5029375;28;20209;-90
2021/06/02 10:36:08;;;;;;;4.65;4.13;;;27.70;29.20;;;;;;5029326;28;20197;-90
2021/06/02 10:38:52;;;;;;;4.28;3.88;;;28.00;29.70;;;;;;5024762;28;20547;-90
2021/06/02 10:41:29;;;;;;;4.82;3.78;;;28.10;31.80;;;;;;5036400;28;20255;-90
2021/06/02 10:44:17;;;;;;;4.50;4.10;;;28.10;29.50;;;;;;5017498;28;20204;-90
2021/06/02 10:46:46;;;;;;;4.32;4.03;;;28.40;29.60;;;;;;5039123;28;20231;-91
2021/06/02 10:49:12;;;;;;;4.53;4.13;;;28.60;28.50;;;;;;5041397;28;20181;-90
2021/06/02 10:51:38;;;;;;;4.28;3.95;;;28.80;28.60;;;;;;5031461;28;20662;-90
2021/06/02 10:54:11;;;;;;;4.15;3.85;;;28.60;28.30;;;;;;5024760;28;20243;-90
2021/06/02 10:56:39;;;;;;;5.18;4.38;;;29.00;28.00;;;;;;5023267;28;20195;-90
2021/06/02 10:59:25;;;;;;;4.72;4.25;;;29.50;27.90;;;;;;5027272;28;20181;-90
2021/06/02 11:02:08;;;;;;;5.40;4.35;;;29.40;27.30;;;;;;5022594;28;20206;-90
2021/06/02 11:04:39;;;;;;;4.18;3.88;;;29.80;27.90;;;;;;5007457;28;20210;-90
2021/06/02 11:07:33;;;;;;;7.82;4.22;;;30.10;27.80;;;;;;5029530;28;20185;-91
2021/06/02 11:10:00;;;;;;;4.22;3.83;;;29.60;26.60;;;;;;5032317;28;20192;-90
2021/06/02 11:12:27;;;;;;;4.78;4.32;;;29.70;27.00;;;;;;5033989;28;20169;-91
2021/06/02 11:14:53;;;;;;;4.72;4.28;;;29.70;27.70;;;;;;5035810;28;20272;-90
2021/06/02 11:17:20;;;;;;;4.53;4.13;;;29.80;27.60;;;;;;5019414;28;20275;-88
2021/06/02 11:19:46;;;;;;;4.70;4.28;;;29.90;27.40;;;;;;5042688;28;20235;-88
2021/06/02 11:22:17;;;;;;;5.40;4.40;;;30.10;27.50;;;;;;5041856;28;20276;-90
2021/06/02 11:24:45;;;;;;;4.93;4.45;;;30.20;27.10;;;;;;5022079;28;20216;-89
2021/06/02 11:27:13;;;;;;;4.43;4.13;;;30.60;26.70;;;;;;5028990;28;20186;-89
2021/06/02 11:29:45;;;;;;;7.30;4.22;;;30.20;26.70;;;;;;5026951;28;20177;-89
2021/06/02 11:32:31;;;;;;;4.40;4.10;;;30.70;26.50;;;;;;5008126;28;20334;-89
2021/06/02 11:34:57;;;;;;;4.85;4.38;;;31.10;26.40;;;;;;5001594;28;20646;-89
2021/06/02 11:37:28;;;;;;;4.60;4.13;;;31.10;25.40;;;;;;5024368;28;20265;-89
2021/06/02 11:39:56;;;;;;;4.70;4.30;;;31.00;25.60;;;;;;5024346;28;20177;-89
2021/06/02 11:42:39;;;;;;;4.65;4.10;;;30.90;25.40;;;;;;5017584;28;20270;-89
2021/06/02 11:45:06;;;;;;;5.20;4.28;;;30.90;25.30;;;;;;5019234;28;20197;-89
2021/06/02 11:47:32;;;;;;;4.22;3.95;;;31.30;25.90;;;;;;5016854;28;20177;-89
2021/06/02 11:50:08;;;;;;;5.03;4.20;;;31.70;25.20;;;;;;5024757;28;20239;-88
2021/06/02 11:52:34;;;;;;;4.38;4.00;;;31.90;25.20;;;;;;5003235;28;20181;-87
2021/06/02 11:55:11;;;;;;;4.72;4.32;;;31.90;25.30;;;;;;5020052;28;20192;-88
2021/06/02 11:57:45;;;;;;;4.88;4.40;;;31.90;25.60;;;;;;5016678;28;20185;-88
2021/06/02 12:00:19;;;;;;;5.10;4.57;;;32.30;24.90;;;;;;5035842;28;20189;-88
2021/06/02 12:02:46;;;;;;;4.57;4.15;;;32.00;25.10;;;;;;5039266;28;20189;-87
2021/06/02 12:05:19;;;;;;;4.90;4.38;;;32.40;25.20;;;;;;5018303;28;20209;-88
2021/06/02 12:07:47;;;;;;;4.60;4.30;;;32.30;24.60;;;;;;5031527;28;20220;-88
2021/06/02 12:10:13;;;;;;;4.80;4.47;;;32.10;25.50;;;;;;4995116;28;20186;-89
2021/06/02 12:12:41;;;;;;;5.22;4.90;;;32.30;24.80;;;;;;5006421;28;20182;-88
2021/06/02 12:15:08;;;;;;;4.88;4.13;;;32.40;24.50;;;;;;5027672;28;20255;-89
2021/06/02 12:17:34;;;;;;;6.60;4.55;;;32.40;24.60;;;;;;5023815;28;20196;-88
2021/06/02 12:20:04;;;;;;;5.15;4.70;;;32.90;25.20;;;;;;5022508;28;20683;-89
2021/06/02 12:22:29;;;;;;;7.32;4.85;;;32.60;25.70;;;;;;5016629;28;20541;-89
2021/06/02 12:25:08;;;;;;;4.70;4.40;;;32.90;25.50;;;;;;5018808;28;20225;-87
2021/06/02 12:27:50;;;;;;;5.20;4.47;;;32.70;24.60;;;;;;5020662;28;20174;-87
2021/06/02 12:30:36;;;;;;;11.00;4.45;;;32.60;25.80;;;;;;5041437;28;20665;-87
2021/06/02 12:33:04;;;;;;;4.80;4.32;;;32.80;24.20;;;;;;5023608;28;20180;-87
2021/06/02 12:35:33;;;;;;;4.85;4.45;;;33.10;24.30;;;;;;4989491;28;20181;-87
2021/06/02 12:38:17;;;;;;;5.22;4.72;;;33.50;24.00;;;;;;5022661;28;20185;-87
2021/06/02 12:40:49;;;;;;;4.82;4.43;;;34.20;24.20;;;;;;5031106;28;20201;-87
2021/06/02 12:43:22;;;;;;;4.90;4.38;;;34.40;23.20;;;;;;5024376;28;20189;-87
2021/06/02 12:45:51;;;;;;;4.90;4.55;;;34.30;23.50;;;;;;5040905;28;20197;-87
2021/06/02 12:48:29;;;;;;;4.63;4.28;;;34.50;23.60;;;;;;5041930;28;20181;-87
2021/06/02 12:50:55;;;;;;;5.18;4.78;;;34.20;23.10;;;;;;5029664;28;20527;-86
2021/06/02 12:53:20;;;;;;;7.20;4.95;;;34.30;22.90;;;;;;5002666;28;20728;-86
2021/06/02 12:55:49;;;;;;;6.13;4.65;;;34.30;22.80;;;;;;5020190;28;20536;-85
2021/06/02 12:58:20;;;;;;;5.10;4.75;;;34.80;22.90;;;;;;4999795;28;20177;-86
2021/06/02 13:00:47;;;;;;;5.15;4.72;;;34.20;22.40;;;;;;5013499;28;20205;-88
2021/06/02 13:03:15;;;;;;;5.03;4.63;;;34.20;22.50;;;;;;5014404;28;20173;-87
2021/06/02 13:05:45;;;;;;;5.03;4.63;;;34.40;23.00;;;;;;5014664;28;20268;-87
2021/06/02 13:08:11;;;;;;;5.72;4.53;;;34.70;23.90;;;;;;5014527;28;20189;-87
2021/06/02 13:10:39;;;;;;;5.00;4.60;;;34.90;23.50;;;;;;5021819;28;20201;-87
2021/06/02 13:13:07;;;;;;;5.25;4.80;;;35.00;24.00;;;;;;5027813;28;20186;-87
2021/06/02 13:15:41;;;;;;;5.60;4.57;;;35.30;23.10;;;;;;4999740;28;20188;-86
2021/06/02 13:18:22;;;;;;;5.38;5.05;;;35.40;23.50;;;;;;5018193;28;20516;-87
2021/06/02 13:20:48;;;;;;;5.90;5.40;;;35.70;23.40;;;;;;5018060;28;20205;-87
2021/06/02 13:23:32;;;;;;;5.97;5.18;;;35.40;23.20;;;;;;5018878;28;20182;-88
2021/06/02 13:26:08;;;;;;;5.30;4.90;;;35.60;22.70;;;;;;5038519;28;20176;-86
2021/06/02 13:28:45;;;;;;;5.50;5.00;;;35.60;23.20;;;;;;5039467;28;20176;-89
2021/06/02 13:31:15;;;;;;;5.57;5.07;;;35.50;23.20;;;;;;5039082;28;20287;-86
2021/06/02 13:33:42;;;;;;;5.10;4.70;;;35.20;22.80;;;;;;5021991;28;20196;-86
2021/06/02 13:36:14;;;;;;;5.30;4.80;;;35.10;23.20;;;;;;5029593;28;20259;-87